Time;durP1;ratioP1;P1;durP2;ratioP2;P2;SDS_P1;SDS_P2;PMS_P1;PMS_P2;Temp;Humidity;BMP_temperature;BMP_pressure;BME280_temperature;BME280_humidity;BME280_pressure;Samples;Min_cycle;Max_cycle;Signal;HPM_P1;HPM_P2
2023/05/01 14:31:06;;;;;;;5.25;2.90;;;20.10;59.50;;;;;;5108541;27;20682;-61
2023/05/01 14:33:32;;;;;;;5.78;2.80;;;19.70;61.00;;;;;;5108234;28;20035;-60
2023/05/01 14:35:58;;;;;;;6.78;3.03;;;19.70;61.90;;;;;;5108952;28;20426;-59
2023/05/01 14:38:25;;;;;;;4.57;2.50;;;19.70;63.40;;;;;;5109223;28;20349;-60
2023/05/01 14:40:51;;;;;;;5.20;2.38;;;19.80;63.10;;;;;;5108022;28;20015;-60
2023/05/01 14:43:18;;;;;;;4.55;2.40;;;19.90;61.90;;;;;;5109199;28;20426;-61
2023/05/01 14:45:45;;;;;;;4.50;2.70;;;19.90;62.50;;;;;;5112804;28;20464;-60
2023/05/01 14:48:40;;;;;;;5.57;1.98;;;19.90;64.10;;;;;;5128766;28;20031;-60
2023/05/01 14:51:11;;;;;;;5.32;2.10;;;19.80;63.80;;;;;;5127171;27;20051;-61
2023/05/01 14:53:42;;;;;;;5.38;2.03;;;19.70;63.40;;;;;;5114433;28;20058;-60
2023/05/01 14:56:08;;;;;;;3.72;2.15;;;19.60;64.40;;;;;;5109058;28;20085;-61
2023/05/01 14:58:34;;;;;;;6.80;2.33;;;19.50;64.80;;;;;;5093475;28;20024;-63
2023/05/01 15:01:01;;;;;;;5.85;2.53;;;19.30;64.60;;;;;;5106586;28;20491;-61
2023/05/01 15:03:27;;;;;;;5.43;2.13;;;19.20;65.20;;;;;;5108594;28;20429;-61
2023/05/01 15:05:53;;;;;;;4.60;2.17;;;19.10;64.40;;;;;;5109137;28;20015;-61
2023/05/01 15:08:18;;;;;;;4.85;2.20;;;18.90;65.90;;;;;;5107763;28;20486;-61
2023/05/01 15:10:44;;;;;;;3.95;2.00;;;18.70;66.10;;;;;;5108987;28;20039;-61
2023/05/01 15:13:10;;;;;;;5.60;2.40;;;18.60;66.50;;;;;;5123313;28;20019;-61
2023/05/01 15:15:35;;;;;;;5.22;2.50;;;18.40;67.60;;;;;;5128343;28;20115;-61
2023/05/01 15:18:02;;;;;;;5.13;2.60;;;18.40;67.30;;;;;;5122254;28;20061;-60
2023/05/01 15:20:28;;;;;;;4.15;2.20;;;18.30;67.80;;;;;;5108262;28;20031;-61
2023/05/01 15:22:54;;;;;;;4.10;2.35;;;18.20;68.90;;;;;;5107748;28;20016;-61
2023/05/01 15:25:19;;;;;;;5.20;2.78;;;18.20;70.10;;;;;;5107939;28;20492;-63
2023/05/01 15:27:45;;;;;;;3.95;2.20;;;18.20;70.30;;;;;;5108646;28;20020;-61
2023/05/01 15:30:13;;;;;;;4.78;2.58;;;18.20;69.60;;;;;;5106019;28;20044;-61
2023/05/01 15:32:39;;;;;;;3.45;2.05;;;18.20;69.80;;;;;;5107685;28;20016;-62
2023/05/01 15:35:05;;;;;;;3.72;2.20;;;18.30;70.00;;;;;;5109695;28;20439;-64
2023/05/01 15:37:30;;;;;;;6.68;2.50;;;18.40;69.60;;;;;;5107465;28;20012;-63
2023/05/01 15:39:56;;;;;;;4.70;2.50;;;18.70;69.10;;;;;;5107933;28;20028;-61
2023/05/01 15:42:22;;;;;;;6.32;2.50;;;19.00;68.30;;;;;;5094139;28;20063;-64
2023/05/01 15:44:48;;;;;;;5.15;2.65;;;19.40;68.40;;;;;;5094345;28;20030;-62
2023/05/01 15:47:14;;;;;;;3.92;2.08;;;19.80;67.70;;;;;;5094348;28;20123;-61
2023/05/01 15:49:40;;;;;;;7.00;2.40;;;20.70;66.20;;;;;;5100126;28;20082;-61
2023/05/01 15:52:06;;;;;;;5.22;2.40;;;21.60;62.70;;;;;;5111193;28;20020;-61
2023/05/01 15:54:31;;;;;;;2.65;2.17;;;21.90;61.80;;;;;;5114705;28;20019;-61
2023/05/01 15:56:57;;;;;;;7.13;2.40;;;22.20;59.10;;;;;;5113931;28;20030;-67
2023/05/01 15:59:24;;;;;;;6.30;2.78;;;22.70;58.80;;;;;;5113313;28;20024;-62
2023/05/01 16:01:52;;;;;;;4.35;2.30;;;22.60;58.10;;;;;;5114143;28;20019;-62
2023/05/01 16:04:17;;;;;;;5.82;2.38;;;22.40;59.30;;;;;;5092401;28;20027;-61
2023/05/01 16:06:43;;;;;;;4.47;2.42;;;22.10;57.10;;;;;;5082839;28;20020;-65
2023/05/01 16:09:09;;;;;;;5.13;2.80;;;21.70;57.90;;;;;;5073431;28;20028;-62
2023/05/01 16:11:35;;;;;;;4.97;2.50;;;21.30;58.60;;;;;;5093289;28;20495;-62
2023/05/01 16:14:01;;;;;;;4.43;2.50;;;21.00;58.70;;;;;;5093248;28;20019;-62
2023/05/01 16:16:27;;;;;;;4.75;2.40;;;21.20;60.70;;;;;;5097458;28;20023;-61
2023/05/01 16:18:55;;;;;;;6.97;2.45;;;21.90;58.90;;;;;;5079883;28;20016;-62
2023/05/01 16:21:22;;;;;;;3.53;2.00;;;22.60;57.60;;;;;;5094868;28;20106;-63
2023/05/01 16:23:48;;;;;;;5.65;2.30;;;22.80;55.70;;;;;;5092977;28;20008;-63
2023/05/01 16:26:20;;;;;;;1.85;1.60;;;22.50;54.90;;;;;;5093666;28;20050;-62
2023/05/01 16:28:46;;;;;;;2.95;1.63;;;21.90;54.30;;;;;;5106701;28;20020;-61
2023/05/01 16:31:12;;;;;;;2.80;1.60;;;21.30;55.20;;;;;;5113003;28;20042;-61
2023/05/01 16:33:40;;;;;;;3.33;1.90;;;21.10;57.00;;;;;;5112612;28;20020;-61
2023/05/01 16:36:08;;;;;;;4.00;1.90;;;21.30;56.50;;;;;;5111522;28;20081;-62
2023/05/01 16:38:34;;;;;;;3.78;1.90;;;22.00;55.90;;;;;;5093477;28;20023;-61
2023/05/01 16:41:00;;;;;;;4.55;1.85;;;22.80;54.90;;;;;;5103596;28;20024;-62
2023/05/01 16:43:25;;;;;;;4.38;2.00;;;23.60;53.20;;;;;;5113228;28;20023;-62
2023/05/01 16:45:53;;;;;;;4.00;2.03;;;24.10;51.40;;;;;;5112544;28;20100;-63
2023/05/01 16:48:21;;;;;;;3.65;2.17;;;24.30;50.60;;;;;;5113573;28;20031;-62
2023/05/01 16:50:47;;;;;;;3.95;2.38;;;24.40;51.10;;;;;;5113445;28;20395;-64
2023/05/01 16:53:13;;;;;;;4.95;2.60;;;23.90;50.90;;;;;;5110985;28;20098;-63
2023/05/01 16:55:38;;;;;;;3.13;2.10;;;23.00;52.80;;;;;;5109078;28;20028;-62
2023/05/01 16:58:05;;;;;;;5.15;2.20;;;22.20;54.30;;;;;;5084564;28;20035;-63
2023/05/01 17:00:31;;;;;;;4.75;2.72;;;21.50;55.80;;;;;;5071536;28;20379;-62
2023/05/01 17:02:57;;;;;;;4.03;2.25;;;20.90;56.80;;;;;;5072047;28;20598;-61
2023/05/01 17:05:24;;;;;;;4.82;2.42;;;20.50;58.60;;;;;;5104496;28;20027;-61
2023/05/01 17:07:50;;;;;;;4.57;2.97;;;20.30;60.60;;;;;;5071677;28;20409;-62
2023/05/01 17:10:15;;;;;;;7.75;3.65;;;20.30;61.80;;;;;;5087997;28;20042;-62
2023/05/01 17:12:41;;;;;;;7.90;4.28;;;20.40;61.60;;;;;;5100855;28;20027;-62
2023/05/01 17:15:08;;;;;;;8.18;4.10;;;20.40;61.30;;;;;;5093447;28;20023;-62
2023/05/01 17:17:35;;;;;;;7.68;3.95;;;20.40;61.60;;;;;;5097582;28;20344;-62
2023/05/01 17:20:02;;;;;;;6.00;3.78;;;20.20;61.80;;;;;;5090828;28;20521;-63
2023/05/01 17:22:28;;;;;;;6.88;3.92;;;20.00;62.20;;;;;;5111076;28;20016;-62
2023/05/01 17:24:53;;;;;;;6.15;3.17;;;20.30;62.40;;;;;;5112544;28;20036;-63
2023/05/01 17:27:19;;;;;;;5.95;3.05;;;21.00;60.50;;;;;;5111769;28;20459;-61
2023/05/01 17:29:45;;;;;;;7.28;3.03;;;21.30;57.30;;;;;;5111338;28;20043;-61
2023/05/01 17:32:11;;;;;;;4.35;2.88;;;21.00;58.10;;;;;;5112479;28;20199;-62
2023/05/01 17:34:36;;;;;;;7.10;3.50;;;20.50;58.90;;;;;;5104154;28;20012;-62
2023/05/01 17:37:02;;;;;;;6.05;3.75;;;20.00;60.80;;;;;;5091564;28;20027;-62
2023/05/01 17:39:28;;;;;;;6.50;3.67;;;19.50;62.20;;;;;;5091787;28;20031;-62
2023/05/01 17:41:54;;;;;;;5.78;3.00;;;19.10;63.80;;;;;;5089895;28;20533;-62
2023/05/01 17:44:20;;;;;;;5.88;3.00;;;18.70;65.00;;;;;;5091953;28;20028;-62
2023/05/01 17:46:45;;;;;;;6.53;3.30;;;18.50;65.50;;;;;;5091448;28;20100;-62
2023/05/01 17:49:11;;;;;;;7.60;3.63;;;18.20;66.50;;;;;;5091177;28;20094;-62
2023/05/01 17:51:37;;;;;;;9.23;3.88;;;18.00;66.90;;;;;;5091639;28;20047;-62
2023/05/01 17:54:21;;;;;;;6.13;3.28;;;17.80;67.50;;;;;;5091040;28;20034;-62
2023/05/01 17:56:46;;;;;;;4.85;3.08;;;17.70;68.30;;;;;;5091675;28;20077;-61
2023/05/01 17:59:12;;;;;;;6.90;3.83;;;17.60;68.80;;;;;;5091319;28;20016;-62
2023/05/01 18:01:38;;;;;;;9.02;3.92;;;17.50;69.60;;;;;;5090250;28;20031;-63
2023/05/01 18:04:04;;;;;;;8.32;4.30;;;17.40;70.20;;;;;;5091344;28;20020;-62
2023/05/01 18:06:30;;;;;;;9.05;5.10;;;17.20;70.70;;;;;;5092394;28;20013;-61
2023/05/01 18:08:56;;;;;;;6.72;4.43;;;17.10;71.50;;;;;;5111035;28;20078;-61
2023/05/01 18:11:22;;;;;;;9.13;5.00;;;17.00;72.90;;;;;;5111700;28;20391;-61
2023/05/01 18:13:48;;;;;;;7.47;5.28;;;16.90;73.90;;;;;;5111911;28;20024;-62
2023/05/01 18:16:14;;;;;;;10.48;7.43;;;16.70;75.00;;;;;;5096920;28;20062;-61
2023/05/01 18:18:41;;;;;;;11.82;8.48;;;16.70;75.90;;;;;;5091411;28;20020;-61
2023/05/01 18:21:06;;;;;;;13.48;8.13;;;16.50;76.20;;;;;;5092139;28;20369;-62
2023/05/01 18:23:34;;;;;;;13.68;8.77;;;16.50;76.90;;;;;;5094923;28;20471;-62
2023/05/01 18:26:00;;;;;;;11.45;8.15;;;16.40;77.90;;;;;;5109800;28;20507;-62
2023/05/01 18:28:26;;;;;;;14.73;8.75;;;16.30;78.50;;;;;;5101515;28;20048;-62
2023/05/01 18:30:51;;;;;;;13.65;8.48;;;16.30;79.20;;;;;;5096506;28;20121;-62
